Terminal Aerodrome Forecast
Issued by NWS

Home | Current Version | Previous Version | Graphics & Text | Print | Product List | Glossary On
Versions: 1 2 3 4 5 6 7 8 9 10 11 12 13 14 15 16 17 18 19
716
FTUS43 KFGF 221735
TAFBJI
TAF
KBJI 221735Z 2218/2318 18018G27KT P6SM BKN250
     FM230200 16012KT P6SM BKN080
     FM230900 16010KT P6SM VCTS OVC020CB
     FM231200 17010KT P6SM -SHRA OVC015=

USA.gov is the U.S. government's official web portal to all federal, state and local government web resources and services.